Scroll down
FLIGHT INFORMATION
PMDG Flight Operations

PFO1105

At Arrival Gate

KIAD
 KBWI
DATE: 2019-11-05
GATE: 
GATE DEPARTURE: 09:14
TAKEOFF: 09:28
DATE: 2019-11-05
GATE:  -
LANDING: 09:41
GATE ARRIVAL: 09:49
FLIGHT DATA
Crew: 
Speed: 
0 kts
Altitude: 
0 ft
Stage Length: 
39.4 nm
Block Time: 
0.5 hrs
Flight Time: 
0.2 hrs
Fuel Used: 
2,789 lb
Cleared Route: 
TRACK DATA
50,000 ft 1,000 kts
AIRCRAFT INFO AND CUMULATIVE STATS
Aircraft Type: 
B739SSW
Registration: 
SELCAL: 
MSN/LN: 
0 / 1
Total Flights: 
4
Total Block Time: 
8.3 hrs
Total Flight Time: 
7.4 hrs
Total Fuel Time: 
41,703 lb
DATALINK LOG | Newest first | Current as of: 2020-11-29 22:57:50
LABEL SEQUENCE CONTENT Dn/Up
QD503109:49 12.7▼ Dn
2U4420KIAD 050852Z 00000KT 10SM FEW250 02/01 A3020 RMK AO2 SLP226 T00220011 56009▲ Up
2S4219KIAD▼ Dn
QC424109:41▼ Dn
2U4116KBWI 050854Z 00000KT 10SM FEW250 04/02 A3020 RMK AO2 SLP227 T00390022 56011▲ Up
2S3923KBWI▼ Dn
QB293209:28▼ Dn
QA154409:14 15.6▼ Dn
2U0837KIAD 050852Z 00000KT 10SM FEW250 02/01 A3020 RMK AO2 SLP226 T00220011 56009▲ Up
2S0731KIAD▼ Dn
A30342CLEARED TO KBWI VIA MRB V166 EMI. SQUAWK 4243.▲ Up
Q00231[LINK ACK]▲ Up
Q00134[LINK TEST]▼ Dn


AIRCRAFT HISTORY
FLIGHT DATE FLIGHT NO. ORIGIN DESTINATION CLEARED ROUTE BLOCK TIME FLIGHT TIME FUEL USED PILOT
2020-07-01PFO701KDAB KLAX KDAB BARBS ROYES CRG AMG MGM SQS BYP SPS GANJA TURKI TXO DRK HIPPI GABBL CHPLN NWMAN MDLER MNROE HLYWD BRUEN AVATR DAAAY WADUP NEILE SEAVU RW25L5.3 hrs5 hrs24,443 lbKyle Weber
2020-02-16PFO519KIAD KDAB 2.2 hrs1.9 hrs12,477 lbSteven Perry
2019-11-05PFO1105KBWI KIAD 0.4 hrs0.2 hrs1,994 lbKyle Rodgers
2019-11-05PFO1105KIAD KBWI 0.5 hrs0.2 hrs2,789 lbKyle Rodgers